Airfield :
LOGIN :

Register | Disclaimer

   EN    FR    IT 

 










Legend :    VFR   Marginal VFR   IFR   Intensive IFR   Very Intensive IFR
Visi :
Ceiling :
>= 8 km
>= 3000ft
5 to 8 km
1000 to 3000 ft
1500m to 5 km
500 to 1000 ft
800 to 1500m
200 to 500 ft
< 800m
< 200 ft
Symbols :   Thunderstorms  Fog  Heavy snow  Heavy precipitations  Wind > 20 kt
SIGMETs :     Misc.  Thunderstorms  Icing  Turbulence  Mountain Waves  Volcanic Ashes







- Airport Elevation : 622 ft
- IATA code : BRS
- Download approach charts


EGGD - Bristol Int.

CURRENT METAR :
  • 160720Z 26010KT 6000 RADZ FEW007 SCT015 BKN021 14/14 Q1013 RERA REDZ

EXPIRED METARs :
  • 160650Z 27012KT 6000 RADZ FEW004 SCT015 BKN020 14/14 Q1013
  • 160620Z 25013KT 5000 2000W RA SCT002 BKN004 15/15 Q1012 RERA
  • 160550Z AUTO 25011KT 4800 RA BKN003/// OVC007/// //////TCU 15/15 Q1012
  • 160520Z AUTO 25012KT 7000 -RA FEW003/// SCT006/// BKN010/// //////CB 15/15 Q1012 RERA
  • 160450Z AUTO 24013KT 9999 -RA SCT004/// BKN011/// BKN016/// //////TCU 15/15 Q1012 RERA

TAF TAF EGGD
Valid from the 16 at 06:00 until the 17 at 06:00 UTC


160453Z 1606/1706 27012KT 9999 SCT020
TEMPO 1606/1609 8000 RA BKN008
PROB40
TEMPO 1606/1609 2000 +RA BKN003
TEMPO 1609/1621 27015G25KT
ATIS : +44 1275 473 666
No reported NOTAMs for that airfield.



MET'MAP, your aeronautical weather chart ! - Copyright ORBIFLY December 2007 - Disclaimer

ORBIFLY MET'MAP TEAM :

Programming & Development : Alexandra Zaïnal
Concept & Development : Baudouin d'Aumeries
Co-Development & Prog : Marc-Olivier Méhu
Technical & hardware support : Manuel Goepfert

Contact : metmap@orbifly.com




SOURCES & CREDITS :

   NOAA